sensor_id;sensor_type;location;lat;lon;timestamp;P1;durP1;ratioP1;P2;durP2;ratioP2
31694;SDS011;18289;51.330;4.946;2024-01-27T00:02:18;15.27;;;6.55;;
31694;SDS011;18289;51.330;4.946;2024-01-27T00:04:44;17.35;;;7.47;;
31694;SDS011;18289;51.330;4.946;2024-01-27T00:07:09;17.55;;;7.10;;
31694;SDS011;18289;51.330;4.946;2024-01-27T00:09:35;16.27;;;7.30;;
31694;SDS011;18289;51.330;4.946;2024-01-27T00:12:01;15.43;;;7.15;;
31694;SDS011;18289;51.330;4.946;2024-01-27T00:14:27;22.02;;;7.18;;
31694;SDS011;18289;51.330;4.946;2024-01-27T00:16:52;13.35;;;8.05;;
31694;SDS011;18289;51.330;4.946;2024-01-27T00:19:18;14.30;;;7.30;;
31694;SDS011;18289;51.330;4.946;2024-01-27T00:21:44;16.55;;;6.90;;
31694;SDS011;18289;51.330;4.946;2024-01-27T00:24:09;13.25;;;6.57;;
31694;SDS011;18289;51.330;4.946;2024-01-27T00:26:35;13.00;;;7.15;;
31694;SDS011;18289;51.330;4.946;2024-01-27T00:29:01;12.50;;;6.70;;
31694;SDS011;18289;51.330;4.946;2024-01-27T00:31:26;17.45;;;7.20;;
31694;SDS011;18289;51.330;4.946;2024-01-27T00:33:52;17.88;;;7.50;;
31694;SDS011;18289;51.330;4.946;2024-01-27T00:36:18;23.02;;;8.10;;
31694;SDS011;18289;51.330;4.946;2024-01-27T00:38:45;14.38;;;7.82;;
31694;SDS011;18289;51.330;4.946;2024-01-27T00:41:15;11.43;;;7.18;;
31694;SDS011;18289;51.330;4.946;2024-01-27T00:43:42;17.63;;;8.63;;
31694;SDS011;18289;51.330;4.946;2024-01-27T00:46:07;16.65;;;7.13;;
31694;SDS011;18289;51.330;4.946;2024-01-27T00:48:33;18.42;;;7.63;;
31694;SDS011;18289;51.330;4.946;2024-01-27T00:50:59;12.55;;;7.00;;
31694;SDS011;18289;51.330;4.946;2024-01-27T00:53:24;18.38;;;7.10;;
31694;SDS011;18289;51.330;4.946;2024-01-27T00:55:50;12.35;;;6.80;;
31694;SDS011;18289;51.330;4.946;2024-01-27T00:58:16;15.65;;;7.47;;
31694;SDS011;18289;51.330;4.946;2024-01-27T01:00:42;20.05;;;7.63;;
31694;SDS011;18289;51.330;4.946;2024-01-27T01:03:07;13.13;;;8.15;;
31694;SDS011;18289;51.330;4.946;2024-01-27T01:05:33;18.77;;;7.60;;
31694;SDS011;18289;51.330;4.946;2024-01-27T01:07:59;19.25;;;7.45;;
31694;SDS011;18289;51.330;4.946;2024-01-27T01:10:24;14.48;;;7.50;;
31694;SDS011;18289;51.330;4.946;2024-01-27T01:12:51;13.13;;;7.13;;
31694;SDS011;18289;51.330;4.946;2024-01-27T01:15:17;18.35;;;7.55;;
31694;SDS011;18289;51.330;4.946;2024-01-27T01:17:42;15.38;;;7.88;;
31694;SDS011;18289;51.330;4.946;2024-01-27T01:20:08;22.60;;;7.97;;
31694;SDS011;18289;51.330;4.946;2024-01-27T01:22:34;13.70;;;7.47;;
31694;SDS011;18289;51.330;4.946;2024-01-27T01:25:00;16.05;;;6.95;;
31694;SDS011;18289;51.330;4.946;2024-01-27T01:27:25;14.25;;;6.97;;
31694;SDS011;18289;51.330;4.946;2024-01-27T01:29:51;15.07;;;7.30;;
31694;SDS011;18289;51.330;4.946;2024-01-27T01:32:17;14.57;;;7.03;;
31694;SDS011;18289;51.330;4.946;2024-01-27T01:34:42;15.93;;;7.38;;
31694;SDS011;18289;51.330;4.946;2024-01-27T01:37:10;16.88;;;6.97;;
31694;SDS011;18289;51.330;4.946;2024-01-27T01:39:36;15.27;;;8.50;;
31694;SDS011;18289;51.330;4.946;2024-01-27T01:42:02;16.65;;;7.82;;
31694;SDS011;18289;51.330;4.946;2024-01-27T01:44:29;12.73;;;7.47;;
31694;SDS011;18289;51.330;4.946;2024-01-27T01:46:55;12.75;;;7.45;;
31694;SDS011;18289;51.330;4.946;2024-01-27T01:49:21;21.52;;;8.57;;
31694;SDS011;18289;51.330;4.946;2024-01-27T01:51:47;16.08;;;7.30;;
31694;SDS011;18289;51.330;4.946;2024-01-27T01:54:13;12.77;;;6.78;;
31694;SDS011;18289;51.330;4.946;2024-01-27T01:56:39;13.27;;;7.40;;
31694;SDS011;18289;51.330;4.946;2024-01-27T01:59:05;17.98;;;7.03;;
31694;SDS011;18289;51.330;4.946;2024-01-27T02:01:31;17.65;;;7.03;;
31694;SDS011;18289;51.330;4.946;2024-01-27T02:03:57;16.73;;;7.57;;
31694;SDS011;18289;51.330;4.946;2024-01-27T02:08:50;13.20;;;6.25;;
31694;SDS011;18289;51.330;4.946;2024-01-27T02:11:17;12.80;;;6.95;;
31694;SDS011;18289;51.330;4.946;2024-01-27T02:13:42;16.02;;;7.05;;
31694;SDS011;18289;51.330;4.946;2024-01-27T02:16:08;14.85;;;7.28;;
31694;SDS011;18289;51.330;4.946;2024-01-27T02:18:34;12.45;;;7.63;;
31694;SDS011;18289;51.330;4.946;2024-01-27T02:21:00;20.20;;;7.22;;
31694;SDS011;18289;51.330;4.946;2024-01-27T02:23:25;16.02;;;7.10;;
31694;SDS011;18289;51.330;4.946;2024-01-27T02:25:51;14.18;;;6.78;;
31694;SDS011;18289;51.330;4.946;2024-01-27T02:28:17;15.15;;;6.53;;
31694;SDS011;18289;51.330;4.946;2024-01-27T02:30:43;19.98;;;7.07;;
31694;SDS011;18289;51.330;4.946;2024-01-27T02:33:09;15.32;;;7.03;;
31694;SDS011;18289;51.330;4.946;2024-01-27T02:35:37;16.23;;;7.40;;
31694;SDS011;18289;51.330;4.946;2024-01-27T02:38:03;19.58;;;7.50;;
31694;SDS011;18289;51.330;4.946;2024-01-27T02:40:29;15.27;;;7.13;;
31694;SDS011;18289;51.330;4.946;2024-01-27T02:42:54;17.10;;;6.80;;
31694;SDS011;18289;51.330;4.946;2024-01-27T02:45:20;10.50;;;6.53;;
31694;SDS011;18289;51.330;4.946;2024-01-27T02:47:46;13.98;;;6.75;;
31694;SDS011;18289;51.330;4.946;2024-01-27T02:50:12;15.27;;;6.63;;
31694;SDS011;18289;51.330;4.946;2024-01-27T02:52:37;15.27;;;6.28;;
31694;SDS011;18289;51.330;4.946;2024-01-27T02:55:03;12.98;;;6.25;;
31694;SDS011;18289;51.330;4.946;2024-01-27T02:57:29;15.68;;;6.55;;
31694;SDS011;18289;51.330;4.946;2024-01-27T02:59:58;15.75;;;7.13;;
31694;SDS011;18289;51.330;4.946;2024-01-27T03:02:23;13.13;;;6.80;;
31694;SDS011;18289;51.330;4.946;2024-01-27T03:04:49;15.07;;;6.88;;
31694;SDS011;18289;51.330;4.946;2024-01-27T03:07:15;14.77;;;6.72;;
31694;SDS011;18289;51.330;4.946;2024-01-27T03:09:40;16.55;;;7.05;;
31694;SDS011;18289;51.330;4.946;2024-01-27T03:12:06;15.85;;;6.78;;
31694;SDS011;18289;51.330;4.946;2024-01-27T03:14:32;14.45;;;7.10;;
31694;SDS011;18289;51.330;4.946;2024-01-27T03:16:58;16.23;;;6.85;;
31694;SDS011;18289;51.330;4.946;2024-01-27T03:19:24;14.40;;;6.30;;
31694;SDS011;18289;51.330;4.946;2024-01-27T03:21:49;12.73;;;5.97;;
31694;SDS011;18289;51.330;4.946;2024-01-27T03:24:15;16.98;;;7.07;;
31694;SDS011;18289;51.330;4.946;2024-01-27T03:26:41;13.05;;;6.57;;
31694;SDS011;18289;51.330;4.946;2024-01-27T03:29:06;10.85;;;6.35;;
31694;SDS011;18289;51.330;4.946;2024-01-27T03:31:32;13.30;;;6.68;;
31694;SDS011;18289;51.330;4.946;2024-01-27T03:34:01;16.48;;;6.45;;
31694;SDS011;18289;51.330;4.946;2024-01-27T03:36:28;11.10;;;6.80;;
31694;SDS011;18289;51.330;4.946;2024-01-27T03:38:55;18.20;;;7.10;;
31694;SDS011;18289;51.330;4.946;2024-01-27T03:41:21;15.02;;;6.35;;
31694;SDS011;18289;51.330;4.946;2024-01-27T03:43:47;13.27;;;6.88;;
31694;SDS011;18289;51.330;4.946;2024-01-27T03:46:13;12.38;;;6.88;;
31694;SDS011;18289;51.330;4.946;2024-01-27T03:48:38;14.05;;;7.07;;
31694;SDS011;18289;51.330;4.946;2024-01-27T03:51:04;12.68;;;6.03;;
31694;SDS011;18289;51.330;4.946;2024-01-27T03:53:30;19.38;;;7.32;;
31694;SDS011;18289;51.330;4.946;2024-01-27T03:55:56;12.70;;;6.65;;
31694;SDS011;18289;51.330;4.946;2024-01-27T03:58:24;16.70;;;6.13;;
31694;SDS011;18289;51.330;4.946;2024-01-27T04:00:50;15.93;;;7.68;;
31694;SDS011;18289;51.330;4.946;2024-01-27T04:03:16;9.98;;;6.00;;
31694;SDS011;18289;51.330;4.946;2024-01-27T04:05:42;12.63;;;6.85;;
31694;SDS011;18289;51.330;4.946;2024-01-27T04:08:08;14.65;;;6.18;;
31694;SDS011;18289;51.330;4.946;2024-01-27T04:10:33;12.82;;;6.97;;
31694;SDS011;18289;51.330;4.946;2024-01-27T04:12:59;10.60;;;6.72;;
31694;SDS011;18289;51.330;4.946;2024-01-27T04:15:25;11.98;;;6.32;;
31694;SDS011;18289;51.330;4.946;2024-01-27T04:17:50;12.05;;;6.85;;
31694;SDS011;18289;51.330;4.946;2024-01-27T04:20:19;15.45;;;6.07;;
31694;SDS011;18289;51.330;4.946;2024-01-27T04:22:45;14.57;;;7.10;;
31694;SDS011;18289;51.330;4.946;2024-01-27T04:25:11;14.23;;;6.38;;
31694;SDS011;18289;51.330;4.946;2024-01-27T04:27:37;14.45;;;7.03;;
31694;SDS011;18289;51.330;4.946;2024-01-27T04:30:07;15.20;;;6.40;;
31694;SDS011;18289;51.330;4.946;2024-01-27T04:32:33;15.27;;;7.20;;
31694;SDS011;18289;51.330;4.946;2024-01-27T04:35:00;14.30;;;6.30;;
31694;SDS011;18289;51.330;4.946;2024-01-27T04:37:26;14.02;;;6.78;;
31694;SDS011;18289;51.330;4.946;2024-01-27T04:39:52;16.08;;;7.07;;
31694;SDS011;18289;51.330;4.946;2024-01-27T04:42:17;17.95;;;7.47;;
31694;SDS011;18289;51.330;4.946;2024-01-27T04:44:43;13.52;;;7.43;;
31694;SDS011;18289;51.330;4.946;2024-01-27T04:47:09;15.90;;;7.50;;
31694;SDS011;18289;51.330;4.946;2024-01-27T04:49:34;11.85;;;7.30;;
31694;SDS011;18289;51.330;4.946;2024-01-27T04:52:00;14.52;;;7.68;;
31694;SDS011;18289;51.330;4.946;2024-01-27T04:54:26;13.40;;;7.35;;
31694;SDS011;18289;51.330;4.946;2024-01-27T04:56:51;19.25;;;7.68;;
31694;SDS011;18289;51.330;4.946;2024-01-27T04:59:17;16.23;;;7.25;;
31694;SDS011;18289;51.330;4.946;2024-01-27T05:01:46;11.55;;;7.13;;
31694;SDS011;18289;51.330;4.946;2024-01-27T05:04:12;17.83;;;7.93;;
31694;SDS011;18289;51.330;4.946;2024-01-27T05:06:38;13.52;;;7.05;;
31694;SDS011;18289;51.330;4.946;2024-01-27T05:09:08;15.00;;;7.15;;
31694;SDS011;18289;51.330;4.946;2024-01-27T05:11:34;15.90;;;7.75;;
31694;SDS011;18289;51.330;4.946;2024-01-27T05:14:00;15.45;;;7.70;;
31694;SDS011;18289;51.330;4.946;2024-01-27T05:16:26;13.30;;;7.60;;
31694;SDS011;18289;51.330;4.946;2024-01-27T05:18:52;18.38;;;7.00;;
31694;SDS011;18289;51.330;4.946;2024-01-27T05:21:18;13.85;;;7.75;;
31694;SDS011;18289;51.330;4.946;2024-01-27T05:23:43;13.50;;;7.15;;
31694;SDS011;18289;51.330;4.946;2024-01-27T05:26:09;15.63;;;8.02;;
31694;SDS011;18289;51.330;4.946;2024-01-27T05:28:36;14.52;;;7.22;;
31694;SDS011;18289;51.330;4.946;2024-01-27T05:31:03;12.25;;;7.38;;
31694;SDS011;18289;51.330;4.946;2024-01-27T05:33:32;17.85;;;7.90;;
31694;SDS011;18289;51.330;4.946;2024-01-27T05:38:25;19.35;;;8.15;;
31694;SDS011;18289;51.330;4.946;2024-01-27T05:40:51;14.10;;;7.80;;
31694;SDS011;18289;51.330;4.946;2024-01-27T05:43:17;17.73;;;8.35;;
31694;SDS011;18289;51.330;4.946;2024-01-27T05:45:43;15.88;;;8.90;;
31694;SDS011;18289;51.330;4.946;2024-01-27T05:48:10;14.55;;;8.10;;
31694;SDS011;18289;51.330;4.946;2024-01-27T05:50:36;14.40;;;7.97;;
31694;SDS011;18289;51.330;4.946;2024-01-27T05:53:02;20.77;;;8.25;;
31694;SDS011;18289;51.330;4.946;2024-01-27T05:55:27;21.83;;;9.48;;
31694;SDS011;18289;51.330;4.946;2024-01-27T05:57:53;15.13;;;8.35;;
31694;SDS011;18289;51.330;4.946;2024-01-27T06:00:21;16.17;;;8.23;;
31694;SDS011;18289;51.330;4.946;2024-01-27T06:02:47;19.08;;;8.38;;
31694;SDS011;18289;51.330;4.946;2024-01-27T06:05:13;16.38;;;9.05;;
31694;SDS011;18289;51.330;4.946;2024-01-27T06:07:38;19.17;;;8.65;;
31694;SDS011;18289;51.330;4.946;2024-01-27T06:10:08;18.40;;;9.35;;
31694;SDS011;18289;51.330;4.946;2024-01-27T06:12:34;21.38;;;9.43;;
31694;SDS011;18289;51.330;4.946;2024-01-27T06:15:01;19.48;;;8.75;;
31694;SDS011;18289;51.330;4.946;2024-01-27T06:19:58;17.15;;;9.63;;
31694;SDS011;18289;51.330;4.946;2024-01-27T06:22:23;18.67;;;9.57;;
31694;SDS011;18289;51.330;4.946;2024-01-27T06:24:49;23.02;;;9.63;;
31694;SDS011;18289;51.330;4.946;2024-01-27T06:27:15;22.65;;;10.20;;
31694;SDS011;18289;51.330;4.946;2024-01-27T06:29:41;17.63;;;9.15;;
31694;SDS011;18289;51.330;4.946;2024-01-27T06:32:07;21.05;;;10.02;;
31694;SDS011;18289;51.330;4.946;2024-01-27T06:34:32;17.42;;;9.70;;
31694;SDS011;18289;51.330;4.946;2024-01-27T06:36:58;22.27;;;9.77;;
31694;SDS011;18289;51.330;4.946;2024-01-27T06:39:24;20.85;;;10.27;;
31694;SDS011;18289;51.330;4.946;2024-01-27T06:41:50;22.17;;;9.75;;
31694;SDS011;18289;51.330;4.946;2024-01-27T06:44:15;21.73;;;10.55;;
31694;SDS011;18289;51.330;4.946;2024-01-27T06:46:41;21.05;;;10.13;;
31694;SDS011;18289;51.330;4.946;2024-01-27T06:49:08;17.75;;;10.00;;
31694;SDS011;18289;51.330;4.946;2024-01-27T06:51:33;15.30;;;9.52;;
31694;SDS011;18289;51.330;4.946;2024-01-27T06:53:59;15.75;;;9.65;;
31694;SDS011;18289;51.330;4.946;2024-01-27T06:56:25;17.55;;;10.65;;
31694;SDS011;18289;51.330;4.946;2024-01-27T06:58:51;19.35;;;9.23;;
31694;SDS011;18289;51.330;4.946;2024-01-27T07:01:16;20.20;;;10.63;;
31694;SDS011;18289;51.330;4.946;2024-01-27T07:03:42;22.65;;;12.05;;
31694;SDS011;18289;51.330;4.946;2024-01-27T07:06:09;24.67;;;11.70;;
31694;SDS011;18289;51.330;4.946;2024-01-27T07:08:35;18.00;;;10.65;;
31694;SDS011;18289;51.330;4.946;2024-01-27T07:11:01;18.17;;;9.85;;
31694;SDS011;18289;51.330;4.946;2024-01-27T07:13:27;20.23;;;9.80;;
31694;SDS011;18289;51.330;4.946;2024-01-27T07:15:54;21.77;;;9.82;;
31694;SDS011;18289;51.330;4.946;2024-01-27T07:18:20;17.45;;;9.77;;
31694;SDS011;18289;51.330;4.946;2024-01-27T07:20:47;19.55;;;9.70;;
31694;SDS011;18289;51.330;4.946;2024-01-27T07:23:13;18.80;;;9.98;;
31694;SDS011;18289;51.330;4.946;2024-01-27T07:25:39;20.25;;;9.75;;
31694;SDS011;18289;51.330;4.946;2024-01-27T07:28:04;15.60;;;10.40;;
31694;SDS011;18289;51.330;4.946;2024-01-27T07:30:30;17.38;;;9.35;;
31694;SDS011;18289;51.330;4.946;2024-01-27T07:32:56;22.88;;;9.93;;
31694;SDS011;18289;51.330;4.946;2024-01-27T07:35:22;21.00;;;9.82;;
31694;SDS011;18289;51.330;4.946;2024-01-27T07:37:47;16.70;;;9.15;;
31694;SDS011;18289;51.330;4.946;2024-01-27T07:40:13;19.45;;;9.05;;
31694;SDS011;18289;51.330;4.946;2024-01-27T07:42:39;19.50;;;8.90;;
31694;SDS011;18289;51.330;4.946;2024-01-27T07:45:06;22.70;;;9.57;;
31694;SDS011;18289;51.330;4.946;2024-01-27T07:47:33;18.92;;;9.15;;
31694;SDS011;18289;51.330;4.946;2024-01-27T07:49:59;24.63;;;10.30;;
31694;SDS011;18289;51.330;4.946;2024-01-27T07:52:25;20.15;;;8.90;;
31694;SDS011;18289;51.330;4.946;2024-01-27T07:54:51;21.48;;;10.40;;
31694;SDS011;18289;51.330;4.946;2024-01-27T07:57:16;18.20;;;9.55;;
31694;SDS011;18289;51.330;4.946;2024-01-27T07:59:42;18.25;;;9.98;;
31694;SDS011;18289;51.330;4.946;2024-01-27T08:02:08;23.08;;;10.38;;
31694;SDS011;18289;51.330;4.946;2024-01-27T08:04:33;19.42;;;9.30;;
31694;SDS011;18289;51.330;4.946;2024-01-27T08:06:59;21.17;;;8.98;;
31694;SDS011;18289;51.330;4.946;2024-01-27T08:09:31;23.33;;;8.60;;
31694;SDS011;18289;51.330;4.946;2024-01-27T08:11:56;20.50;;;9.40;;
31694;SDS011;18289;51.330;4.946;2024-01-27T08:14:22;14.63;;;8.73;;
31694;SDS011;18289;51.330;4.946;2024-01-27T08:16:48;17.10;;;8.45;;
31694;SDS011;18289;51.330;4.946;2024-01-27T08:19:14;21.73;;;10.15;;
31694;SDS011;18289;51.330;4.946;2024-01-27T08:21:45;18.40;;;10.43;;
31694;SDS011;18289;51.330;4.946;2024-01-27T08:24:12;21.02;;;9.18;;
31694;SDS011;18289;51.330;4.946;2024-01-27T08:26:38;19.70;;;9.55;;
31694;SDS011;18289;51.330;4.946;2024-01-27T08:29:04;20.98;;;9.27;;
31694;SDS011;18289;51.330;4.946;2024-01-27T08:31:30;20.60;;;9.98;;
31694;SDS011;18289;51.330;4.946;2024-01-27T08:33:56;21.98;;;9.77;;
31694;SDS011;18289;51.330;4.946;2024-01-27T08:36:22;19.40;;;9.68;;
31694;SDS011;18289;51.330;4.946;2024-01-27T08:38:47;22.40;;;10.20;;
31694;SDS011;18289;51.330;4.946;2024-01-27T08:41:13;19.13;;;10.32;;
31694;SDS011;18289;51.330;4.946;2024-01-27T08:43:39;18.60;;;9.63;;
31694;SDS011;18289;51.330;4.946;2024-01-27T08:46:04;22.40;;;10.10;;
31694;SDS011;18289;51.330;4.946;2024-01-27T08:48:32;18.88;;;9.80;;
31694;SDS011;18289;51.330;4.946;2024-01-27T08:50:57;20.45;;;9.07;;
31694;SDS011;18289;51.330;4.946;2024-01-27T08:53:23;20.45;;;10.20;;
31694;SDS011;18289;51.330;4.946;2024-01-27T08:55:48;21.67;;;10.23;;
31694;SDS011;18289;51.330;4.946;2024-01-27T08:58:14;24.75;;;10.80;;
31694;SDS011;18289;51.330;4.946;2024-01-27T09:00:40;24.25;;;12.02;;
31694;SDS011;18289;51.330;4.946;2024-01-27T09:03:06;25.42;;;11.23;;
31694;SDS011;18289;51.330;4.946;2024-01-27T09:05:32;25.30;;;11.38;;
31694;SDS011;18289;51.330;4.946;2024-01-27T09:07:58;24.85;;;12.43;;
31694;SDS011;18289;51.330;4.946;2024-01-27T09:10:23;22.40;;;13.00;;
31694;SDS011;18289;51.330;4.946;2024-01-27T09:12:49;23.40;;;11.55;;
31694;SDS011;18289;51.330;4.946;2024-01-27T09:15:15;24.15;;;12.98;;
31694;SDS011;18289;51.330;4.946;2024-01-27T09:17:41;25.23;;;11.18;;
31694;SDS011;18289;51.330;4.946;2024-01-27T09:20:08;24.80;;;10.98;;
31694;SDS011;18289;51.330;4.946;2024-01-27T09:22:34;21.17;;;9.80;;
31694;SDS011;18289;51.330;4.946;2024-01-27T09:25:00;21.05;;;8.85;;
31694;SDS011;18289;51.330;4.946;2024-01-27T09:27:25;17.02;;;8.50;;
31694;SDS011;18289;51.330;4.946;2024-01-27T09:29:51;18.98;;;8.07;;
31694;SDS011;18289;51.330;4.946;2024-01-27T09:32:17;12.93;;;7.18;;
31694;SDS011;18289;51.330;4.946;2024-01-27T09:34:42;15.38;;;6.90;;
31694;SDS011;18289;51.330;4.946;2024-01-27T09:37:08;14.15;;;6.78;;
31694;SDS011;18289;51.330;4.946;2024-01-27T09:39:34;10.60;;;6.45;;
31694;SDS011;18289;51.330;4.946;2024-01-27T09:42:00;14.68;;;6.28;;
31694;SDS011;18289;51.330;4.946;2024-01-27T09:44:30;16.83;;;7.15;;
31694;SDS011;18289;51.330;4.946;2024-01-27T09:46:56;15.13;;;6.25;;
31694;SDS011;18289;51.330;4.946;2024-01-27T09:49:22;9.35;;;5.90;;
31694;SDS011;18289;51.330;4.946;2024-01-27T09:51:49;12.20;;;6.03;;
31694;SDS011;18289;51.330;4.946;2024-01-27T09:54:15;13.18;;;6.07;;
31694;SDS011;18289;51.330;4.946;2024-01-27T09:56:42;12.40;;;5.53;;
31694;SDS011;18289;51.330;4.946;2024-01-27T09:59:11;15.35;;;6.47;;
31694;SDS011;18289;51.330;4.946;2024-01-27T10:01:39;12.48;;;6.15;;
31694;SDS011;18289;51.330;4.946;2024-01-27T10:04:05;14.75;;;6.65;;
31694;SDS011;18289;51.330;4.946;2024-01-27T10:06:34;10.43;;;6.07;;
31694;SDS011;18289;51.330;4.946;2024-01-27T10:08:59;16.42;;;6.22;;
31694;SDS011;18289;51.330;4.946;2024-01-27T10:11:25;11.88;;;5.25;;
31694;SDS011;18289;51.330;4.946;2024-01-27T10:13:56;13.90;;;6.32;;
31694;SDS011;18289;51.330;4.946;2024-01-27T10:16:24;13.20;;;5.57;;
31694;SDS011;18289;51.330;4.946;2024-01-27T10:19:00;15.40;;;6.10;;
31694;SDS011;18289;51.330;4.946;2024-01-27T10:21:27;13.85;;;5.30;;
31694;SDS011;18289;51.330;4.946;2024-01-27T10:23:53;17.85;;;6.60;;
31694;SDS011;18289;51.330;4.946;2024-01-27T10:26:18;12.65;;;5.03;;
31694;SDS011;18289;51.330;4.946;2024-01-27T10:28:56;10.88;;;5.00;;
31694;SDS011;18289;51.330;4.946;2024-01-27T10:31:29;15.70;;;5.65;;
31694;SDS011;18289;51.330;4.946;2024-01-27T10:33:56;13.00;;;5.75;;
31694;SDS011;18289;51.330;4.946;2024-01-27T10:36:23;12.57;;;5.25;;
31694;SDS011;18289;51.330;4.946;2024-01-27T10:38:49;15.38;;;6.45;;
31694;SDS011;18289;51.330;4.946;2024-01-27T10:41:19;11.90;;;5.20;;
31694;SDS011;18289;51.330;4.946;2024-01-27T10:43:48;18.48;;;5.63;;
31694;SDS011;18289;51.330;4.946;2024-01-27T10:46:17;14.00;;;5.38;;
31694;SDS011;18289;51.330;4.946;2024-01-27T10:48:50;16.23;;;5.97;;
31694;SDS011;18289;51.330;4.946;2024-01-27T10:51:23;13.57;;;5.18;;
31694;SDS011;18289;51.330;4.946;2024-01-27T10:54:02;13.27;;;5.45;;
31694;SDS011;18289;51.330;4.946;2024-01-27T10:56:32;13.02;;;5.50;;
31694;SDS011;18289;51.330;4.946;2024-01-27T10:59:00;16.20;;;5.07;;
31694;SDS011;18289;51.330;4.946;2024-01-27T11:01:29;15.75;;;5.18;;
31694;SDS011;18289;51.330;4.946;2024-01-27T11:03:59;11.02;;;4.55;;
31694;SDS011;18289;51.330;4.946;2024-01-27T11:06:28;13.45;;;4.60;;
31694;SDS011;18289;51.330;4.946;2024-01-27T11:08:56;13.10;;;4.72;;
31694;SDS011;18289;51.330;4.946;2024-01-27T11:13:50;13.35;;;6.18;;
31694;SDS011;18289;51.330;4.946;2024-01-27T11:16:17;8.48;;;4.07;;
31694;SDS011;18289;51.330;4.946;2024-01-27T11:18:44;12.65;;;4.70;;
31694;SDS011;18289;51.330;4.946;2024-01-27T11:21:13;10.95;;;4.20;;
31694;SDS011;18289;51.330;4.946;2024-01-27T11:23:43;10.65;;;4.63;;
31694;SDS011;18289;51.330;4.946;2024-01-27T11:26:16;9.88;;;4.75;;
31694;SDS011;18289;51.330;4.946;2024-01-27T11:28:48;11.30;;;4.35;;
31694;SDS011;18289;51.330;4.946;2024-01-27T11:31:16;9.75;;;4.55;;
31694;SDS011;18289;51.330;4.946;2024-01-27T11:33:47;14.98;;;5.30;;
31694;SDS011;18289;51.330;4.946;2024-01-27T11:36:20;10.80;;;4.00;;
31694;SDS011;18289;51.330;4.946;2024-01-27T11:38:48;11.82;;;3.88;;
31694;SDS011;18289;51.330;4.946;2024-01-27T11:41:23;7.25;;;3.65;;
31694;SDS011;18289;51.330;4.946;2024-01-27T11:43:53;12.18;;;3.45;;
31694;SDS011;18289;51.330;4.946;2024-01-27T11:46:25;11.80;;;4.15;;
31694;SDS011;18289;51.330;4.946;2024-01-27T11:48:51;10.68;;;3.80;;
31694;SDS011;18289;51.330;4.946;2024-01-27T11:51:17;12.07;;;4.00;;
31694;SDS011;18289;51.330;4.946;2024-01-27T11:53:48;8.35;;;4.07;;
31694;SDS011;18289;51.330;4.946;2024-01-27T11:56:14;11.30;;;3.65;;
31694;SDS011;18289;51.330;4.946;2024-01-27T11:58:45;10.15;;;3.50;;
31694;SDS011;18289;51.330;4.946;2024-01-27T12:01:12;8.95;;;3.20;;
31694;SDS011;18289;51.330;4.946;2024-01-27T12:03:38;10.15;;;3.13;;
31694;SDS011;18289;51.330;4.946;2024-01-27T12:06:03;9.48;;;3.17;;
31694;SDS011;18289;51.330;4.946;2024-01-27T12:08:31;10.98;;;3.53;;
31694;SDS011;18289;51.330;4.946;2024-01-27T12:10:56;8.57;;;3.38;;
31694;SDS011;18289;51.330;4.946;2024-01-27T12:13:22;9.80;;;3.90;;
31694;SDS011;18289;51.330;4.946;2024-01-27T12:15:48;7.05;;;3.55;;
31694;SDS011;18289;51.330;4.946;2024-01-27T12:18:14;10.32;;;3.50;;
31694;SDS011;18289;51.330;4.946;2024-01-27T12:20:39;8.10;;;3.05;;
31694;SDS011;18289;51.330;4.946;2024-01-27T12:23:06;7.95;;;3.40;;
31694;SDS011;18289;51.330;4.946;2024-01-27T12:25:32;9.07;;;3.38;;
31694;SDS011;18289;51.330;4.946;2024-01-27T12:28:02;10.73;;;3.40;;
31694;SDS011;18289;51.330;4.946;2024-01-27T12:30:31;10.80;;;4.03;;
31694;SDS011;18289;51.330;4.946;2024-01-27T12:32:57;10.27;;;3.53;;
31694;SDS011;18289;51.330;4.946;2024-01-27T12:35:23;7.70;;;3.10;;
31694;SDS011;18289;51.330;4.946;2024-01-27T12:37:50;11.30;;;3.05;;
31694;SDS011;18289;51.330;4.946;2024-01-27T12:40:18;10.85;;;3.70;;
31694;SDS011;18289;51.330;4.946;2024-01-27T12:42:45;7.25;;;3.45;;
31694;SDS011;18289;51.330;4.946;2024-01-27T12:45:11;10.95;;;3.65;;
31694;SDS011;18289;51.330;4.946;2024-01-27T12:47:37;11.10;;;3.75;;
31694;SDS011;18289;51.330;4.946;2024-01-27T12:50:03;13.40;;;3.72;;
31694;SDS011;18289;51.330;4.946;2024-01-27T12:52:29;10.38;;;3.33;;
31694;SDS011;18289;51.330;4.946;2024-01-27T12:54:55;10.32;;;4.00;;
31694;SDS011;18289;51.330;4.946;2024-01-27T12:57:20;10.18;;;3.35;;
31694;SDS011;18289;51.330;4.946;2024-01-27T12:59:46;11.23;;;3.50;;
31694;SDS011;18289;51.330;4.946;2024-01-27T13:02:12;8.85;;;4.05;;
31694;SDS011;18289;51.330;4.946;2024-01-27T13:04:38;11.27;;;3.35;;
31694;SDS011;18289;51.330;4.946;2024-01-27T13:07:04;9.05;;;3.33;;
31694;SDS011;18289;51.330;4.946;2024-01-27T13:09:29;11.35;;;3.90;;
31694;SDS011;18289;51.330;4.946;2024-01-27T13:11:55;11.55;;;3.78;;
31694;SDS011;18289;51.330;4.946;2024-01-27T13:14:21;11.25;;;3.90;;
31694;SDS011;18289;51.330;4.946;2024-01-27T13:16:47;8.38;;;3.35;;
31694;SDS011;18289;51.330;4.946;2024-01-27T13:19:13;11.48;;;3.47;;
31694;SDS011;18289;51.330;4.946;2024-01-27T13:21:39;9.55;;;4.20;;
31694;SDS011;18289;51.330;4.946;2024-01-27T13:24:07;7.75;;;3.47;;
31694;SDS011;18289;51.330;4.946;2024-01-27T13:26:34;8.90;;;3.30;;
31694;SDS011;18289;51.330;4.946;2024-01-27T13:29:03;8.65;;;3.67;;
31694;SDS011;18289;51.330;4.946;2024-01-27T13:31:29;8.25;;;3.15;;
31694;SDS011;18289;51.330;4.946;2024-01-27T13:33:56;10.35;;;3.40;;
31694;SDS011;18289;51.330;4.946;2024-01-27T13:36:22;6.28;;;3.05;;
31694;SDS011;18289;51.330;4.946;2024-01-27T13:38:48;7.80;;;3.15;;
31694;SDS011;18289;51.330;4.946;2024-01-27T13:41:14;6.43;;;2.55;;
31694;SDS011;18289;51.330;4.946;2024-01-27T13:43:40;9.75;;;3.55;;
31694;SDS011;18289;51.330;4.946;2024-01-27T13:46:06;7.65;;;3.97;;
31694;SDS011;18289;51.330;4.946;2024-01-27T13:48:32;7.75;;;3.10;;
31694;SDS011;18289;51.330;4.946;2024-01-27T13:50:58;9.75;;;3.42;;
31694;SDS011;18289;51.330;4.946;2024-01-27T13:53:24;9.57;;;3.60;;
31694;SDS011;18289;51.330;4.946;2024-01-27T13:55:50;9.80;;;3.90;;
31694;SDS011;18289;51.330;4.946;2024-01-27T13:58:17;11.52;;;4.40;;
31694;SDS011;18289;51.330;4.946;2024-01-27T14:00:43;7.22;;;3.65;;
31694;SDS011;18289;51.330;4.946;2024-01-27T14:03:08;11.68;;;3.70;;
31694;SDS011;18289;51.330;4.946;2024-01-27T14:05:34;10.35;;;3.63;;
31694;SDS011;18289;51.330;4.946;2024-01-27T14:08:00;6.30;;;3.40;;
31694;SDS011;18289;51.330;4.946;2024-01-27T14:10:26;7.40;;;3.65;;
31694;SDS011;18289;51.330;4.946;2024-01-27T14:12:52;8.80;;;4.03;;
31694;SDS011;18289;51.330;4.946;2024-01-27T14:15:18;12.80;;;5.00;;
31694;SDS011;18289;51.330;4.946;2024-01-27T14:17:43;7.47;;;3.60;;
31694;SDS011;18289;51.330;4.946;2024-01-27T14:20:10;11.25;;;3.95;;
31694;SDS011;18289;51.330;4.946;2024-01-27T14:22:37;7.80;;;3.17;;
31694;SDS011;18289;51.330;4.946;2024-01-27T14:25:03;9.43;;;3.60;;
31694;SDS011;18289;51.330;4.946;2024-01-27T14:27:29;11.75;;;5.32;;
31694;SDS011;18289;51.330;4.946;2024-01-27T14:29:55;10.35;;;4.63;;
31694;SDS011;18289;51.330;4.946;2024-01-27T14:32:21;8.52;;;3.75;;
31694;SDS011;18289;51.330;4.946;2024-01-27T14:34:48;8.15;;;3.40;;
31694;SDS011;18289;51.330;4.946;2024-01-27T14:37:14;6.88;;;3.50;;
31694;SDS011;18289;51.330;4.946;2024-01-27T14:42:10;11.43;;;3.13;;
31694;SDS011;18289;51.330;4.946;2024-01-27T14:44:37;6.60;;;3.53;;